Time,TemperatureF,DewpointF,PressureIn,WindDirection,WindDirectionDegrees,WindSpeedMPH,WindSpeedGustMPH,Humidity,HourlyPrecipIn,Conditions,Clouds,dailyrainin,SolarRadiationWatts/m^2,SoftwareType,DateUTC
2013-03-09 00:00:00,37.3,33.2,30.24,NNE,33,0.0,1.0,85,0.00,,---,0.00,0.00,VWS V14.01,2013-03-09 08:00:00,
2013-03-09 00:05:00,37.2,33.1,30.25,NNE,33,0.0,1.0,85,0.00,,---,0.00,0.00,VWS V14.01,2013-03-09 08:05:00,
2013-03-09 00:10:00,37.1,33.0,30.25,NNE,33,0.0,1.0,85,0.00,,---,0.00,0.00,VWS V14.01,2013-03-09 08:10:00,
2013-03-09 00:15:00,37.1,33.3,30.25,NNE,33,0.0,1.0,86,0.00,,---,0.00,0.00,VWS V14.01,2013-03-09 08:15:00,
2013-03-09 00:20:00,37.0,33.2,30.25,NNE,33,0.0,1.0,86,0.00,,---,0.00,0.00,VWS V14.01,2013-03-09 08:20:00,
2013-03-09 00:25:00,36.9,33.1,30.25,NNE,33,0.0,1.0,86,0.00,,---,0.00,0.00,VWS V14.01,2013-03-09 08:25:00,
2013-03-09 00:30:00,36.8,33.0,30.25,NNE,33,0.0,0.0,86,0.00,,---,0.00,0.00,VWS V14.01,2013-03-09 08:30:00,
2013-03-09 00:35:00,36.8,33.0,30.25,NNE,33,0.0,1.0,86,0.00,,---,0.00,0.00,VWS V14.01,2013-03-09 08:35:00,
2013-03-09 00:40:00,36.8,33.0,30.25,NNE,33,0.0,1.0,86,0.00,,---,0.00,0.00,VWS V14.01,2013-03-09 08:40:00,
2013-03-09 00:45:00,36.7,32.9,30.25,NNE,33,0.0,1.0,86,0.00,,---,0.00,0.00,VWS V14.01,2013-03-09 08:45:00,
2013-03-09 00:50:00,36.6,32.8,30.26,NNE,33,0.0,1.0,86,0.00,,---,0.00,0.00,VWS V14.01,2013-03-09 08:50:00,
2013-03-09 00:55:00,36.5,32.7,30.26,NNE,33,0.0,1.0,86,0.00,,---,0.00,0.00,VWS V14.01,2013-03-09 08:55:00,
2013-03-09 01:00:00,36.6,33.1,30.26,NNE,33,0.0,0.0,87,0.00,,---,0.00,0.00,VWS V14.01,2013-03-09 09:00:00,
2013-03-09 01:05:00,36.6,33.1,30.26,NNE,33,0.0,0.0,87,0.00,,---,0.00,0.00,VWS V14.01,2013-03-09 09:05:00,
2013-03-09 01:10:00,36.5,33.0,30.26,NNE,33,0.0,0.0,87,0.00,,---,0.00,0.00,VWS V14.01,2013-03-09 09:10:00,
2013-03-09 01:15:00,36.5,33.0,30.26,NNE,33,0.0,0.0,87,0.00,,---,0.00,0.00,VWS V14.01,2013-03-09 09:15:00,
2013-03-09 01:20:00,36.4,32.9,30.27,NNE,33,0.0,1.0,87,0.00,,---,0.00,0.00,VWS V14.01,2013-03-09 09:20:00,
2013-03-09 01:25:00,36.4,32.9,30.27,NNE,33,0.0,1.0,87,0.00,,---,0.00,0.00,VWS V14.01,2013-03-09 09:25:00,
2013-03-09 01:30:00,36.4,32.9,30.27,NNE,33,0.0,0.0,87,0.00,,---,0.00,0.00,VWS V14.01,2013-03-09 09:30:00,
2013-03-09 01:35:00,36.4,32.9,30.27,NNE,33,0.0,0.0,87,0.00,,---,0.00,0.00,VWS V14.01,2013-03-09 09:35:00,
2013-03-09 01:40:00,36.4,32.9,30.28,NNE,33,0.0,0.0,87,0.00,,---,0.00,0.00,VWS V14.01,2013-03-09 09:40:00,
2013-03-09 01:45:00,36.4,32.9,30.28,NNE,33,0.0,0.0,87,0.00,,---,0.00,0.00,VWS V14.01,2013-03-09 09:45:00,
2013-03-09 01:50:00,36.4,32.9,30.27,NNE,33,0.0,0.0,87,0.00,,---,0.00,0.00,VWS V14.01,2013-03-09 09:50:00,
2013-03-09 01:55:00,36.3,32.8,30.28,NNE,33,0.0,0.0,87,0.00,,---,0.00,0.00,VWS V14.01,2013-03-09 09:55:00,
2013-03-09 02:00:00,36.2,32.7,30.28,NNE,33,0.0,0.0,87,0.00,,---,0.00,0.00,VWS V14.01,2013-03-09 10:00:00,
2013-03-09 02:05:00,36.2,32.7,30.27,NNE,33,0.0,0.0,87,0.00,,---,0.00,0.00,VWS V14.01,2013-03-09 10:05:00,
2013-03-09 02:10:00,36.3,33.1,30.28,NNE,33,0.0,0.0,88,0.00,,---,0.00,0.00,VWS V14.01,2013-03-09 10:10:00,
2013-03-09 02:15:00,36.2,33.0,30.28,NNE,33,0.0,0.0,88,0.00,,---,0.00,0.00,VWS V14.01,2013-03-09 10:15:00,
2013-03-09 02:20:00,36.1,32.6,30.28,NNE,33,0.0,0.0,87,0.00,,---,0.00,0.00,VWS V14.01,2013-03-09 10:20:00,
2013-03-09 02:25:00,35.9,32.4,30.28,NNE,33,0.0,0.0,87,0.00,,---,0.00,0.00,VWS V14.01,2013-03-09 10:25:00,
2013-03-09 02:30:00,35.8,32.3,30.28,NNE,33,0.0,0.0,87,0.00,,---,0.00,0.00,VWS V14.01,2013-03-09 10:30:00,
2013-03-09 02:35:00,35.8,32.3,30.28,NNE,33,0.0,0.0,87,0.00,,---,0.00,0.00,VWS V14.01,2013-03-09 10:35:00,
2013-03-09 02:40:00,35.8,32.3,30.28,NNE,33,0.0,0.0,87,0.00,,---,0.00,0.00,VWS V14.01,2013-03-09 10:40:00,
2013-03-09 02:45:00,35.7,32.2,30.28,NNE,33,0.0,0.0,87,0.00,,---,0.00,0.00,VWS V14.01,2013-03-09 10:45:00,
2013-03-09 02:50:00,35.6,32.1,30.28,NNE,33,0.0,0.0,87,0.00,,---,0.00,0.00,VWS V14.01,2013-03-09 10:50:00,
2013-03-09 02:55:00,35.5,32.0,30.28,NNE,33,0.0,0.0,87,0.00,,---,0.00,0.00,VWS V14.01,2013-03-09 10:55:00,
2013-03-09 03:00:00,35.5,32.3,30.28,NNE,33,0.0,0.0,88,0.00,,---,0.00,0.00,VWS V14.01,2013-03-09 11:00:00,
2013-03-09 03:05:00,35.5,32.3,30.29,NNE,33,0.0,0.0,88,0.00,,---,0.00,0.00,VWS V14.01,2013-03-09 11:05:00,
2013-03-09 03:10:00,35.5,32.3,30.29,NNE,33,0.0,0.0,88,0.00,,---,0.00,0.00,VWS V14.01,2013-03-09 11:10:00,
2013-03-09 03:15:00,35.5,32.3,30.29,NNE,33,0.0,0.0,88,0.00,,---,0.00,0.00,VWS V14.01,2013-03-09 11:15:00,
2013-03-09 03:20:00,35.6,32.4,30.29,NNE,33,0.0,0.0,88,0.00,,---,0.00,0.00,VWS V14.01,2013-03-09 11:20:00,
2013-03-09 03:25:00,35.5,32.3,30.30,NNE,33,0.0,0.0,88,0.00,,---,0.00,0.00,VWS V14.01,2013-03-09 11:25:00,
2013-03-09 03:30:00,35.4,32.2,30.29,NNE,33,0.0,0.0,88,0.00,,---,0.00,0.00,VWS V14.01,2013-03-09 11:30:00,
2013-03-09 03:35:00,35.2,32.0,30.29,NNE,33,0.0,0.0,88,0.00,,---,0.00,0.00,VWS V14.01,2013-03-09 11:35:00,
2013-03-09 03:40:00,35.1,31.9,30.30,NNE,33,0.0,0.0,88,0.00,,---,0.00,0.00,VWS V14.01,2013-03-09 11:40:00,
2013-03-09 03:45:00,35.0,31.8,30.30,NNE,33,0.0,0.0,88,0.00,,---,0.00,0.00,VWS V14.01,2013-03-09 11:45:00,
2013-03-09 03:50:00,34.9,31.7,30.30,NNE,33,0.0,0.0,88,0.00,,---,0.00,0.00,VWS V14.01,2013-03-09 11:50:00,
2013-03-09 03:55:00,34.9,31.7,30.30,NNE,33,0.0,1.0,88,0.00,,---,0.00,0.00,VWS V14.01,2013-03-09 11:55:00,
2013-03-09 04:00:00,35.2,32.0,30.30,NNE,33,0.0,1.0,88,0.00,,---,0.00,0.00,VWS V14.01,2013-03-09 12:00:00,
2013-03-09 04:05:00,35.3,32.1,30.31,NNE,33,0.0,1.0,88,0.00,,---,0.00,0.00,VWS V14.01,2013-03-09 12:05:00,
2013-03-09 04:10:00,35.2,32.0,30.31,NNE,33,0.0,1.0,88,0.00,,---,0.00,0.00,VWS V14.01,2013-03-09 12:10:00,
2013-03-09 04:15:00,35.0,31.8,30.31,NNE,33,0.0,1.0,88,0.00,,---,0.00,0.00,VWS V14.01,2013-03-09 12:15:00,
2013-03-09 04:20:00,34.9,31.7,30.31,NNE,33,0.0,1.0,88,0.00,,---,0.00,0.00,VWS V14.01,2013-03-09 12:20:00,
2013-03-09 04:25:00,34.8,31.6,30.31,NNE,33,0.0,2.0,88,0.00,,---,0.00,0.00,VWS V14.01,2013-03-09 12:25:00,
2013-03-09 04:30:00,34.7,31.5,30.31,NNE,33,0.0,1.0,88,0.00,,---,0.00,0.00,VWS V14.01,2013-03-09 12:30:00,
2013-03-09 04:35:00,34.8,31.6,30.31,NNE,33,0.0,1.0,88,0.00,,---,0.00,0.00,VWS V14.01,2013-03-09 12:35:00,
2013-03-09 04:40:00,34.8,31.6,30.31,NNE,33,0.0,1.0,88,0.00,,---,0.00,0.00,VWS V14.01,2013-03-09 12:40:00,
2013-03-09 04:45:00,34.6,31.4,30.31,NNE,33,0.0,1.0,88,0.00,,---,0.00,0.00,VWS V14.01,2013-03-09 12:45:00,
2013-03-09 04:50:00,34.4,31.2,30.31,NNE,33,0.0,1.0,88,0.00,,---,0.00,0.00,VWS V14.01,2013-03-09 12:50:00,
2013-03-09 04:55:00,34.4,31.5,30.32,NNE,33,0.0,1.0,89,0.00,,---,0.00,0.00,VWS V14.01,2013-03-09 12:55:00,
2013-03-09 05:00:00,34.4,31.5,30.32,NNE,33,0.0,2.0,89,0.00,,---,0.00,0.00,VWS V14.01,2013-03-09 13:00:00,
2013-03-09 05:05:00,34.4,31.5,30.32,NNE,33,1.0,4.0,89,0.00,,---,0.00,0.00,VWS V14.01,2013-03-09 13:05:00,
2013-03-09 05:10:00,34.3,31.1,30.32,NNE,33,0.0,4.0,88,0.00,,---,0.00,0.00,VWS V14.01,2013-03-09 13:10:00,
2013-03-09 05:15:00,34.3,31.4,30.32,NNE,33,0.0,4.0,89,0.00,,---,0.00,0.00,VWS V14.01,2013-03-09 13:15:00,
2013-03-09 05:20:00,34.4,31.5,30.32,NNE,33,0.0,4.0,89,0.00,,---,0.00,0.00,VWS V14.01,2013-03-09 13:20:00,
2013-03-09 05:25:00,34.9,32.0,30.32,NNE,33,0.0,4.0,89,0.00,,---,0.00,0.00,VWS V14.01,2013-03-09 13:25:00,
2013-03-09 05:30:00,35.1,32.2,30.33,NNE,33,0.0,2.0,89,0.00,,---,0.00,0.00,VWS V14.01,2013-03-09 13:30:00,
2013-03-09 05:35:00,35.0,32.1,30.33,NNE,33,0.0,2.0,89,0.00,,---,0.00,0.00,VWS V14.01,2013-03-09 13:35:00,
2013-03-09 05:40:00,34.9,32.0,30.33,NNE,33,0.0,2.0,89,0.00,,---,0.00,0.00,VWS V14.01,2013-03-09 13:40:00,
2013-03-09 05:45:00,34.7,31.8,30.33,NNE,33,0.0,2.0,89,0.00,,---,0.00,0.00,VWS V14.01,2013-03-09 13:45:00,
2013-03-09 05:50:00,34.4,31.5,30.33,NNE,33,0.0,2.0,89,0.00,,---,0.00,0.00,VWS V14.01,2013-03-09 13:50:00,
2013-03-09 05:55:00,34.3,31.4,30.33,NNE,33,0.0,2.0,89,0.00,,---,0.00,0.00,VWS V14.01,2013-03-09 13:55:00,
2013-03-09 06:00:00,34.1,31.2,30.34,NNE,33,0.0,0.0,89,0.00,,---,0.00,0.00,VWS V14.01,2013-03-09 14:00:00,
2013-03-09 06:05:00,34.0,31.1,30.34,NNE,33,0.0,0.0,89,0.00,,---,0.00,0.00,VWS V14.01,2013-03-09 14:05:00,
2013-03-09 06:10:00,33.7,30.8,30.34,NNE,33,0.0,0.0,89,0.00,,---,0.00,0.00,VWS V14.01,2013-03-09 14:10:00,
2013-03-09 06:15:00,33.6,30.7,30.35,NNE,33,0.0,0.0,89,0.00,,---,0.00,0.00,VWS V14.01,2013-03-09 14:15:00,
2013-03-09 06:20:00,33.5,30.6,30.35,NNE,33,0.0,0.0,89,0.00,,---,0.00,0.00,VWS V14.01,2013-03-09 14:20:00,
2013-03-09 06:25:00,33.3,30.4,30.34,NNE,33,0.0,1.0,89,0.00,,---,0.00,0.00,VWS V14.01,2013-03-09 14:25:00,
2013-03-09 06:30:00,33.2,30.3,30.34,NNE,33,0.0,0.0,89,0.00,,---,0.00,0.00,VWS V14.01,2013-03-09 14:30:00,
2013-03-09 06:35:00,33.1,30.2,30.35,NNE,33,0.0,0.0,89,0.00,,---,0.00,0.00,VWS V14.01,2013-03-09 14:35:00,
2013-03-09 06:40:00,33.5,30.6,30.35,NNE,33,0.0,1.0,89,0.00,,---,0.00,0.00,VWS V14.01,2013-03-09 14:40:00,
2013-03-09 06:45:00,33.5,30.6,30.35,NNE,33,0.0,1.0,89,0.00,,---,0.00,5.00,VWS V14.01,2013-03-09 14:45:00,
2013-03-09 06:50:00,33.3,30.4,30.35,NNE,33,0.0,1.0,89,0.00,,---,0.00,9.00,VWS V14.01,2013-03-09 14:50:00,
2013-03-09 06:55:00,33.1,30.2,30.36,NNE,33,0.0,2.0,89,0.00,,---,0.00,9.00,VWS V14.01,2013-03-09 14:55:00,
2013-03-09 07:00:00,33.0,30.1,30.36,NNE,33,0.0,0.0,89,0.00,,---,0.00,12.00,VWS V14.01,2013-03-09 15:00:00,
2013-03-09 07:05:00,33.0,30.1,30.36,NNE,33,0.0,0.0,89,0.00,,---,0.00,14.00,VWS V14.01,2013-03-09 15:05:00,
2013-03-09 07:10:00,33.1,30.2,30.37,NNE,33,0.0,0.0,89,0.00,,---,0.00,14.00,VWS V14.01,2013-03-09 15:10:00,
2013-03-09 07:14:00,33.3,30.4,30.37,NNE,33,0.0,1.0,89,0.00,,---,0.00,18.00,VWS V14.01,2013-03-09 15:14:00,
2013-03-09 07:19:00,34.0,31.1,30.38,NNE,33,0.0,1.0,89,0.00,,---,0.00,35.00,VWS V14.01,2013-03-09 15:19:00,
2013-03-09 07:24:00,34.5,31.9,30.38,NNE,33,0.0,1.0,90,0.00,,---,0.00,23.00,VWS V14.01,2013-03-09 15:24:00,
2013-03-09 07:29:00,34.9,32.3,30.38,NNE,33,0.0,0.0,90,0.00,,---,0.00,26.00,VWS V14.01,2013-03-09 15:29:00,
2013-03-09 07:30:00,37.1,34.4,30.41,NNE,33,0.0,4.0,90,0.00,,---,0.00,74.00,VWS V14.01,2013-03-09 15:30:00,
2013-03-09 07:34:00,35.1,32.5,30.39,NNE,33,0.0,0.0,90,0.00,,---,0.00,33.00,VWS V14.01,2013-03-09 15:34:00,
2013-03-09 07:39:00,35.3,32.7,30.39,NNE,33,0.0,0.0,90,0.00,,---,0.00,40.00,VWS V14.01,2013-03-09 15:39:00,
2013-03-09 07:44:00,35.5,32.9,30.39,NNE,33,0.0,0.0,90,0.00,,---,0.00,42.00,VWS V14.01,2013-03-09 15:44:00,
2013-03-09 07:49:00,35.9,33.3,30.39,NNE,33,0.0,1.0,90,0.00,,---,0.00,42.00,VWS V14.01,2013-03-09 15:49:00,
2013-03-09 07:54:00,36.2,33.6,30.39,NNE,33,2.0,2.0,90,0.00,,---,0.00,44.00,VWS V14.01,2013-03-09 15:54:00,
2013-03-09 07:59:00,36.4,33.8,30.39,NNE,33,0.0,2.0,90,0.00,,---,0.00,53.00,VWS V14.01,2013-03-09 15:59:00,
2013-03-09 08:00:00,38.1,35.4,30.41,NNE,33,0.0,5.0,90,0.00,,---,0.00,76.00,VWS V14.01,2013-03-09 16:00:00,
2013-03-09 08:04:00,36.5,33.8,30.40,NNE,33,0.0,2.0,90,0.00,,---,0.00,53.00,VWS V14.01,2013-03-09 16:04:00,
2013-03-09 08:09:00,36.7,34.0,30.41,NNE,33,0.0,2.0,90,0.00,,---,0.00,51.00,VWS V14.01,2013-03-09 16:09:00,
2013-03-09 08:14:00,36.8,34.2,30.40,NNE,33,0.0,2.0,90,0.00,,---,0.00,54.00,VWS V14.01,2013-03-09 16:14:00,
2013-03-09 08:19:00,36.9,34.2,30.41,NNE,33,0.0,4.0,90,0.00,,---,0.00,62.00,VWS V14.01,2013-03-09 16:19:00,
2013-03-09 08:24:00,37.1,34.4,30.41,NNE,33,2.0,4.0,90,0.00,,---,0.00,65.00,VWS V14.01,2013-03-09 16:24:00,
2013-03-09 08:29:00,37.2,34.5,30.41,NNE,33,0.0,0.0,90,0.00,,---,0.00,70.00,VWS V14.01,2013-03-09 16:29:00,
2013-03-09 08:30:00,38.7,36.0,30.41,ESE,104,5.0,9.0,90,0.00,,---,0.00,134.00,VWS V14.01,2013-03-09 16:30:00,
2013-03-09 08:34:00,37.3,34.6,30.41,NNE,33,0.0,0.0,90,0.00,,---,0.00,74.00,VWS V14.01,2013-03-09 16:34:00,
2013-03-09 08:39:00,37.7,35.0,30.41,NNE,33,4.0,5.0,90,0.00,,---,0.00,72.00,VWS V14.01,2013-03-09 16:39:00,
2013-03-09 08:44:00,38.2,35.5,30.41,NNE,33,0.0,5.0,90,0.00,,---,0.00,74.00,VWS V14.01,2013-03-09 16:44:00,
2013-03-09 08:49:00,38.3,35.6,30.41,NNE,33,1.0,5.0,90,0.00,,---,0.00,74.00,VWS V14.01,2013-03-09 16:49:00,
2013-03-09 08:54:00,38.2,35.5,30.41,NNE,33,2.0,5.0,90,0.00,,---,0.00,74.00,VWS V14.01,2013-03-09 16:54:00,
2013-03-09 08:59:00,38.0,35.3,30.40,NNE,33,0.0,3.0,90,0.00,,---,0.00,77.00,VWS V14.01,2013-03-09 16:59:00,
2013-03-09 09:00:00,39.8,37.1,30.42,ESE,104,0.0,5.0,90,0.00,,---,0.00,132.00,VWS V14.01,2013-03-09 17:00:00,
2013-03-09 09:04:00,37.9,35.2,30.40,East,96,0.0,9.0,90,0.00,,---,0.00,79.00,VWS V14.01,2013-03-09 17:04:00,
2013-03-09 09:09:00,38.3,35.6,30.40,ESE,102,3.0,9.0,90,0.00,,---,0.00,88.00,VWS V14.01,2013-03-09 17:09:00,
2013-03-09 09:14:00,38.6,35.9,30.41,ESE,104,0.0,9.0,90,0.00,,---,0.00,86.00,VWS V14.01,2013-03-09 17:14:00,
2013-03-09 09:19:00,38.7,36.0,30.41,ESE,104,1.0,9.0,90,0.00,,---,0.00,107.00,VWS V14.01,2013-03-09 17:19:00,
2013-03-09 09:24:00,38.7,36.0,30.41,ESE,104,0.0,9.0,90,0.00,,---,0.00,111.00,VWS V14.01,2013-03-09 17:24:00,
2013-03-09 09:29:00,38.7,36.0,30.42,ESE,104,0.0,5.0,90,0.00,,---,0.00,141.00,VWS V14.01,2013-03-09 17:29:00,
2013-03-09 09:30:00,39.8,37.1,30.42,WNW,287,4.0,7.0,90,0.00,,---,0.00,40.00,VWS V14.01,2013-03-09 17:30:00,
2013-03-09 09:34:00,39.0,36.3,30.42,ESE,104,0.0,5.0,90,0.00,,---,0.00,83.00,VWS V14.01,2013-03-09 17:34:00,
2013-03-09 09:39:00,39.4,36.7,30.42,ESE,104,0.0,5.0,90,0.00,,---,0.00,86.00,VWS V14.01,2013-03-09 17:39:00,
2013-03-09 09:44:00,39.5,36.8,30.42,ESE,104,0.0,5.0,90,0.00,,---,0.00,132.00,VWS V14.01,2013-03-09 17:44:00,
2013-03-09 09:49:00,39.6,36.9,30.42,ESE,104,0.0,5.0,90,0.00,,---,0.00,130.00,VWS V14.01,2013-03-09 17:49:00,
2013-03-09 09:54:00,39.7,37.0,30.42,ESE,104,2.0,5.0,90,0.00,,---,0.00,114.00,VWS V14.01,2013-03-09 17:54:00,
2013-03-09 09:59:00,39.8,37.1,30.42,ESE,104,0.0,1.0,90,0.00,,---,0.00,139.00,VWS V14.01,2013-03-09 17:59:00,
2013-03-09 10:00:00,40.2,37.5,30.44,WNW,283,4.0,9.0,90,0.00,,---,0.00,49.00,VWS V14.01,2013-03-09 18:00:00,
2013-03-09 10:04:00,40.1,37.4,30.42,ESE,104,2.0,2.0,90,0.00,,---,0.00,84.00,VWS V14.01,2013-03-09 18:04:00,
2013-03-09 10:09:00,40.2,37.5,30.42,ESE,104,0.0,2.0,90,0.00,,---,0.00,56.00,VWS V14.01,2013-03-09 18:09:00,
2013-03-09 10:14:00,40.2,37.5,30.42,SE,142,0.0,6.0,90,0.00,,---,0.00,54.00,VWS V14.01,2013-03-09 18:14:00,
2013-03-09 10:19:00,40.0,37.3,30.42,WNW,287,5.0,7.0,90,0.00,,---,0.00,44.00,VWS V14.01,2013-03-09 18:19:00,
2013-03-09 10:24:00,39.8,37.1,30.42,WNW,287,0.0,7.0,90,0.00,,---,0.00,40.00,VWS V14.01,2013-03-09 18:24:00,
2013-03-09 10:29:00,39.9,37.2,30.42,WNW,287,6.0,7.0,90,0.00,,---,0.00,40.00,VWS V14.01,2013-03-09 18:29:00,
2013-03-09 10:30:00,41.7,38.4,30.45,West,279,6.0,9.0,88,0.00,,---,0.00,58.00,VWS V14.01,2013-03-09 18:30:00,
2013-03-09 10:34:00,40.0,37.3,30.43,WNW,285,1.0,7.0,90,0.00,,---,0.00,40.00,VWS V14.01,2013-03-09 18:34:00,
2013-03-09 10:39:00,40.1,37.4,30.43,West,279,4.0,9.0,90,0.00,,---,0.00,42.00,VWS V14.01,2013-03-09 18:39:00,
2013-03-09 10:44:00,40.1,37.4,30.44,WNW,289,4.0,9.0,90,0.00,,---,0.00,46.00,VWS V14.01,2013-03-09 18:44:00,
2013-03-09 10:49:00,40.2,37.5,30.44,WNW,300,4.0,9.0,90,0.00,,---,0.00,56.00,VWS V14.01,2013-03-09 18:49:00,
2013-03-09 10:54:00,40.2,37.5,30.44,West,269,6.0,9.0,90,0.00,,---,0.00,42.00,VWS V14.01,2013-03-09 18:54:00,
2013-03-09 10:59:00,40.2,37.5,30.44,WNW,283,1.0,5.0,90,0.00,,---,0.00,46.00,VWS V14.01,2013-03-09 18:59:00,
2013-03-09 11:00:00,43.3,38.5,30.46,West,279,3.0,9.0,83,0.00,,---,0.00,40.00,VWS V14.01,2013-03-09 19:00:00,
2013-03-09 11:04:00,40.4,37.7,30.44,West,274,6.0,7.0,90,0.00,,---,0.00,47.00,VWS V14.01,2013-03-09 19:04:00,
2013-03-09 11:09:00,40.7,37.7,30.44,West,274,5.0,8.0,89,0.00,,---,0.00,53.00,VWS V14.01,2013-03-09 19:09:00,
2013-03-09 11:14:00,41.0,38.0,30.45,WSW,252,8.0,8.0,89,0.00,,---,0.00,49.00,VWS V14.01,2013-03-09 19:14:00,
2013-03-09 11:19:00,41.3,38.3,30.45,West,269,4.0,9.0,89,0.00,,---,0.00,49.00,VWS V14.01,2013-03-09 19:19:00,
2013-03-09 11:24:00,41.6,38.3,30.45,WNW,291,3.0,9.0,88,0.00,,---,0.00,56.00,VWS V14.01,2013-03-09 19:24:00,
2013-03-09 11:29:00,41.8,38.2,30.45,West,269,3.0,8.0,87,0.00,,---,0.00,69.00,VWS V14.01,2013-03-09 19:29:00,
2013-03-09 11:30:00,44.8,38.7,30.45,West,279,1.0,7.0,79,0.00,,---,0.00,37.00,VWS V14.01,2013-03-09 19:30:00,
2013-03-09 11:34:00,42.1,38.2,30.45,West,279,0.0,8.0,86,0.00,,---,0.00,47.00,VWS V14.01,2013-03-09 19:34:00,
2013-03-09 11:39:00,42.4,38.2,30.45,WNW,293,6.0,9.0,85,0.00,,---,0.00,44.00,VWS V14.01,2013-03-09 19:39:00,
2013-03-09 11:44:00,42.7,38.2,30.46,WNW,284,4.0,9.0,84,0.00,,---,0.00,42.00,VWS V14.01,2013-03-09 19:44:00,
2013-03-09 11:49:00,42.9,38.1,30.45,West,279,5.0,9.0,83,0.00,,---,0.00,40.00,VWS V14.01,2013-03-09 19:49:00,
2013-03-09 11:54:00,43.1,38.3,30.46,West,279,2.0,9.0,83,0.00,,---,0.00,40.00,VWS V14.01,2013-03-09 19:54:00,
2013-03-09 11:59:00,43.4,38.3,30.46,West,279,6.0,6.0,82,0.00,,---,0.00,39.00,VWS V14.01,2013-03-09 19:59:00,
2013-03-09 12:00:00,47.2,39.3,30.44,West,279,1.0,8.0,74,0.00,,---,0.00,37.00,VWS V14.01,2013-03-09 20:00:00,
2013-03-09 12:04:00,43.7,38.3,30.46,West,279,4.0,7.0,81,0.00,,---,0.00,39.00,VWS V14.01,2013-03-09 20:04:00,
2013-03-09 12:09:00,44.0,38.5,30.46,West,279,4.0,7.0,81,0.00,,---,0.00,39.00,VWS V14.01,2013-03-09 20:09:00,
2013-03-09 12:14:00,44.1,38.7,30.46,West,279,4.0,7.0,81,0.00,,---,0.00,37.00,VWS V14.01,2013-03-09 20:14:00,
2013-03-09 12:19:00,44.3,38.8,30.46,West,279,2.0,7.0,81,0.00,,---,0.00,37.00,VWS V14.01,2013-03-09 20:19:00,
2013-03-09 12:24:00,44.6,38.8,30.46,West,279,4.0,7.0,80,0.00,,---,0.00,37.00,VWS V14.01,2013-03-09 20:24:00,
2013-03-09 12:29:00,45.0,38.9,30.45,West,279,0.0,5.0,79,0.00,,---,0.00,37.00,VWS V14.01,2013-03-09 20:29:00,
2013-03-09 12:30:00,49.2,39.1,30.44,West,269,6.0,8.0,68,0.00,,---,0.00,35.00,VWS V14.01,2013-03-09 20:30:00,
2013-03-09 12:34:00,45.2,39.1,30.45,West,279,2.0,5.0,79,0.00,,---,0.00,39.00,VWS V14.01,2013-03-09 20:34:00,
2013-03-09 12:39:00,45.7,39.2,30.45,West,279,4.0,6.0,78,0.00,,---,0.00,39.00,VWS V14.01,2013-03-09 20:39:00,
2013-03-09 12:44:00,46.1,39.3,30.45,WNW,289,6.0,7.0,77,0.00,,---,0.00,39.00,VWS V14.01,2013-03-09 20:44:00,
2013-03-09 12:49:00,46.5,39.4,30.45,West,269,4.0,8.0,76,0.00,,---,0.00,39.00,VWS V14.01,2013-03-09 20:49:00,
2013-03-09 12:54:00,47.0,39.5,30.44,West,269,3.0,8.0,75,0.00,,---,0.00,37.00,VWS V14.01,2013-03-09 20:54:00,
2013-03-09 12:59:00,47.4,39.5,30.44,West,274,4.0,8.0,74,0.00,,---,0.00,37.00,VWS V14.01,2013-03-09 20:59:00,
2013-03-09 13:00:00,49.7,40.3,30.43,West,279,5.0,10.0,70,0.00,,---,0.00,37.00,VWS V14.01,2013-03-09 21:00:00,
2013-03-09 13:04:00,47.7,39.5,30.44,WSW,251,0.0,8.0,73,0.00,,---,0.00,37.00,VWS V14.01,2013-03-09 21:04:00,
2013-03-09 13:09:00,48.1,39.9,30.44,WNW,284,4.0,8.0,73,0.00,,---,0.00,37.00,VWS V14.01,2013-03-09 21:09:00,
2013-03-09 13:14:00,48.5,39.9,30.44,West,279,6.0,8.0,72,0.00,,---,0.00,37.00,VWS V14.01,2013-03-09 21:14:00,
2013-03-09 13:19:00,48.7,39.4,30.44,West,264,7.0,8.0,70,0.00,,---,0.00,35.00,VWS V14.01,2013-03-09 21:19:00,
2013-03-09 13:24:00,49.0,38.5,30.44,West,264,4.0,8.0,67,0.00,,---,0.00,35.00,VWS V14.01,2013-03-09 21:24:00,
2013-03-09 13:29:00,49.3,39.6,30.43,West,265,4.0,7.0,69,0.00,,---,0.00,35.00,VWS V14.01,2013-03-09 21:29:00,
2013-03-09 13:30:00,50.0,39.9,30.44,West,279,3.0,8.0,68,0.00,,---,0.00,33.00,VWS V14.01,2013-03-09 21:30:00,
2013-03-09 13:34:00,49.6,39.5,30.44,WSW,252,5.0,8.0,68,0.00,,---,0.00,37.00,VWS V14.01,2013-03-09 21:34:00,
2013-03-09 13:39:00,49.9,40.2,30.44,West,279,5.0,10.0,69,0.00,,---,0.00,37.00,VWS V14.01,2013-03-09 21:39:00,
2013-03-09 13:44:00,49.9,40.5,30.44,West,279,6.0,10.0,70,0.00,,---,0.00,37.00,VWS V14.01,2013-03-09 21:44:00,
2013-03-09 13:49:00,49.8,40.4,30.43,West,279,6.0,10.0,70,0.00,,---,0.00,35.00,VWS V14.01,2013-03-09 21:49:00,
2013-03-09 13:54:00,49.7,40.7,30.43,WNW,283,4.0,10.0,71,0.00,,---,0.00,35.00,VWS V14.01,2013-03-09 21:54:00,
2013-03-09 13:59:00,49.7,40.3,30.43,West,279,2.0,6.0,70,0.00,,---,0.00,35.00,VWS V14.01,2013-03-09 21:59:00,
2013-03-09 14:00:00,51.3,37.0,30.44,WSW,250,3.0,9.0,58,0.00,,---,0.00,33.00,VWS V14.01,2013-03-09 22:00:00,
2013-03-09 14:04:00,49.7,40.3,30.43,West,279,6.0,7.0,70,0.00,,---,0.00,35.00,VWS V14.01,2013-03-09 22:04:00,
2013-03-09 14:09:00,49.7,40.3,30.43,West,279,5.0,7.0,70,0.00,,---,0.00,35.00,VWS V14.01,2013-03-09 22:09:00,
2013-03-09 14:14:00,49.9,40.2,30.43,West,274,7.0,7.0,69,0.00,,---,0.00,35.00,VWS V14.01,2013-03-09 22:14:00,
2013-03-09 14:19:00,49.9,39.8,30.44,WNW,287,6.0,8.0,68,0.00,,---,0.00,35.00,VWS V14.01,2013-03-09 22:19:00,
2013-03-09 14:24:00,49.9,39.4,30.44,WNW,287,5.0,8.0,67,0.00,,---,0.00,35.00,VWS V14.01,2013-03-09 22:24:00,
2013-03-09 14:29:00,50.1,40.0,30.44,West,279,5.0,5.0,68,0.00,,---,0.00,33.00,VWS V14.01,2013-03-09 22:29:00,
2013-03-09 14:30:00,52.6,38.3,30.43,WSW,243,1.0,10.0,58,0.00,,---,0.00,35.00,VWS V14.01,2013-03-09 22:30:00,
2013-03-09 14:34:00,50.2,39.3,30.44,West,269,6.0,8.0,66,0.00,,---,0.00,33.00,VWS V14.01,2013-03-09 22:34:00,
2013-03-09 14:39:00,50.4,39.1,30.44,West,274,3.0,8.0,65,0.00,,---,0.00,33.00,VWS V14.01,2013-03-09 22:39:00,
2013-03-09 14:44:00,50.7,38.2,30.44,West,269,6.0,8.0,62,0.00,,---,0.00,33.00,VWS V14.01,2013-03-09 22:44:00,
2013-03-09 14:49:00,50.9,38.0,30.44,SW,236,5.0,8.0,61,0.00,,---,0.00,33.00,VWS V14.01,2013-03-09 22:49:00,
2013-03-09 14:54:00,51.2,37.0,30.44,WSW,253,2.0,9.0,58,0.00,,---,0.00,33.00,VWS V14.01,2013-03-09 22:54:00,
2013-03-09 14:59:00,51.4,37.1,30.43,West,269,2.0,8.0,58,0.00,,---,0.00,33.00,VWS V14.01,2013-03-09 22:59:00,
2013-03-09 15:00:00,52.7,37.9,30.44,WSW,253,5.0,10.0,57,0.00,,---,0.00,35.00,VWS V14.01,2013-03-09 23:00:00,
2013-03-09 15:04:00,51.7,37.4,30.43,WSW,237,8.0,10.0,58,0.00,,---,0.00,33.00,VWS V14.01,2013-03-09 23:04:00,
2013-03-09 15:09:00,51.9,37.6,30.44,West,265,5.0,10.0,58,0.00,,---,0.00,33.00,VWS V14.01,2013-03-09 23:09:00,
2013-03-09 15:14:00,52.2,37.0,30.43,WSW,247,2.0,10.0,56,0.00,,---,0.00,33.00,VWS V14.01,2013-03-09 23:14:00,
2013-03-09 15:19:00,52.4,37.2,30.43,SW,218,5.0,10.0,56,0.00,,---,0.00,33.00,VWS V14.01,2013-03-09 23:19:00,
2013-03-09 15:24:00,52.5,38.6,30.43,WSW,252,6.0,10.0,59,0.00,,---,0.00,35.00,VWS V14.01,2013-03-09 23:24:00,
2013-03-09 15:29:00,52.7,38.3,30.44,WSW,244,0.0,6.0,58,0.00,,---,0.00,35.00,VWS V14.01,2013-03-09 23:29:00,
2013-03-09 15:30:00,52.9,37.2,30.43,WSW,255,3.0,9.0,55,0.00,,---,0.00,39.00,VWS V14.01,2013-03-09 23:30:00,
2013-03-09 15:34:00,52.7,37.5,30.44,SW,224,6.0,10.0,56,0.00,,---,0.00,35.00,VWS V14.01,2013-03-09 23:34:00,
2013-03-09 15:39:00,52.6,37.4,30.43,WSW,258,5.0,10.0,56,0.00,,---,0.00,35.00,VWS V14.01,2013-03-09 23:39:00,
2013-03-09 15:44:00,52.6,37.4,30.44,SW,225,2.0,10.0,56,0.00,,---,0.00,35.00,VWS V14.01,2013-03-09 23:44:00,
2013-03-09 15:49:00,52.6,37.8,30.44,SW,221,2.0,10.0,57,0.00,,---,0.00,35.00,VWS V14.01,2013-03-09 23:49:00,
2013-03-09 15:54:00,52.7,37.5,30.44,SW,218,2.0,10.0,56,0.00,,---,0.00,35.00,VWS V14.01,2013-03-09 23:54:00,
2013-03-09 15:59:00,52.7,37.5,30.44,West,269,6.0,6.0,56,0.00,,---,0.00,35.00,VWS V14.01,2013-03-09 23:59:00,
2013-03-09 16:00:00,52.4,36.7,30.44,SW,231,4.0,8.0,55,0.00,,---,0.00,39.00,VWS V14.01,2013-03-10 00:00:00,
2013-03-09 16:04:00,52.7,37.0,30.44,West,264,5.0,7.0,55,0.00,,---,0.00,35.00,VWS V14.01,2013-03-10 00:04:00,
2013-03-09 16:09:00,52.7,37.5,30.44,West,260,1.0,7.0,56,0.00,,---,0.00,37.00,VWS V14.01,2013-03-10 00:09:00,
2013-03-09 16:14:00,52.8,37.1,30.44,WSW,251,2.0,9.0,55,0.00,,---,0.00,37.00,VWS V14.01,2013-03-10 00:14:00,
2013-03-09 16:19:00,52.9,36.7,30.44,WSW,250,4.0,9.0,54,0.00,,---,0.00,35.00,VWS V14.01,2013-03-10 00:19:00,
2013-03-09 16:24:00,52.9,36.7,30.44,WSW,243,1.0,9.0,54,0.00,,---,0.00,37.00,VWS V14.01,2013-03-10 00:24:00,
2013-03-09 16:29:00,52.9,36.7,30.44,SW,231,8.0,8.0,54,0.00,,---,0.00,39.00,VWS V14.01,2013-03-10 00:29:00,
2013-03-09 16:30:00,51.5,37.2,30.44,SW,231,0.0,5.0,58,0.00,,---,0.00,21.00,VWS V14.01,2013-03-10 00:30:00,
2013-03-09 16:34:00,52.8,36.6,30.43,SW,231,0.0,8.0,54,0.00,,---,0.00,40.00,VWS V14.01,2013-03-10 00:34:00,
2013-03-09 16:39:00,52.8,37.1,30.43,SW,231,4.0,8.0,55,0.00,,---,0.00,39.00,VWS V14.01,2013-03-10 00:39:00,
2013-03-09 16:44:00,52.8,37.5,30.44,SW,231,3.0,8.0,56,0.00,,---,0.00,35.00,VWS V14.01,2013-03-10 00:44:00,
2013-03-09 16:49:00,52.7,37.0,30.44,SW,231,1.0,8.0,55,0.00,,---,0.00,32.00,VWS V14.01,2013-03-10 00:49:00,
2013-03-09 16:54:00,52.5,37.3,30.44,SW,231,1.0,8.0,56,0.00,,---,0.00,47.00,VWS V14.01,2013-03-10 00:54:00,
2013-03-09 16:59:00,52.4,36.7,30.44,SW,231,0.0,4.0,55,0.00,,---,0.00,42.00,VWS V14.01,2013-03-10 00:59:00,
2013-03-09 17:00:00,50.1,38.0,30.45,SW,231,0.0,1.0,63,0.00,,---,0.00,5.00,VWS V14.01,2013-03-10 01:00:00,
2013-03-09 17:04:00,52.3,37.1,30.44,SW,231,4.0,5.0,56,0.00,,---,0.00,26.00,VWS V14.01,2013-03-10 01:04:00,
2013-03-09 17:09:00,52.1,36.9,30.44,SW,231,0.0,5.0,56,0.00,,---,0.00,25.00,VWS V14.01,2013-03-10 01:09:00,
2013-03-09 17:14:00,52.0,36.8,30.44,SW,231,0.0,5.0,56,0.00,,---,0.00,25.00,VWS V14.01,2013-03-10 01:14:00,
2013-03-09 17:19:00,51.8,36.6,30.44,SW,231,0.0,5.0,56,0.00,,---,0.00,23.00,VWS V14.01,2013-03-10 01:19:00,
2013-03-09 17:24:00,51.6,36.9,30.44,SW,231,1.0,5.0,57,0.00,,---,0.00,23.00,VWS V14.01,2013-03-10 01:24:00,
2013-03-09 17:29:00,51.5,37.7,30.44,SW,231,0.0,0.0,59,0.00,,---,0.00,19.00,VWS V14.01,2013-03-10 01:29:00,
2013-03-09 17:30:00,48.0,37.6,30.46,SW,231,0.0,1.0,67,0.00,,---,0.00,0.00,VWS V14.01,2013-03-10 01:30:00,
2013-03-09 17:34:00,51.3,37.0,30.44,SW,231,0.0,1.0,58,0.00,,---,0.00,19.00,VWS V14.01,2013-03-10 01:34:00,
2013-03-09 17:39:00,51.1,37.3,30.45,SW,231,0.0,1.0,59,0.00,,---,0.00,16.00,VWS V14.01,2013-03-10 01:39:00,
2013-03-09 17:44:00,50.9,37.5,30.45,SW,231,0.0,1.0,60,0.00,,---,0.00,12.00,VWS V14.01,2013-03-10 01:44:00,
2013-03-09 17:49:00,50.6,37.7,30.45,SW,231,0.0,1.0,61,0.00,,---,0.00,9.00,VWS V14.01,2013-03-10 01:49:00,
2013-03-09 17:54:00,50.3,37.8,30.45,SW,231,0.0,1.0,62,0.00,,---,0.00,7.00,VWS V14.01,2013-03-10 01:54:00,
2013-03-09 17:59:00,50.0,37.5,30.45,SW,231,0.0,0.0,62,0.00,,---,0.00,5.00,VWS V14.01,2013-03-10 01:59:00,
2013-03-09 18:00:00,46.5,36.5,30.46,SW,231,0.0,2.0,68,0.00,,---,0.00,0.00,VWS V14.01,2013-03-10 02:00:00,
2013-03-09 18:04:00,49.7,37.6,30.45,SW,231,0.0,0.0,63,0.00,,---,0.00,0.00,VWS V14.01,2013-03-10 02:04:00,
2013-03-09 18:09:00,49.3,37.2,30.45,SW,231,0.0,0.0,63,0.00,,---,0.00,0.00,VWS V14.01,2013-03-10 02:09:00,
2013-03-09 18:14:00,49.0,37.8,30.45,SW,231,0.0,0.0,65,0.00,,---,0.00,0.00,VWS V14.01,2013-03-10 02:14:00,
2013-03-09 18:19:00,48.6,37.4,30.46,SW,231,0.0,0.0,65,0.00,,---,0.00,0.00,VWS V14.01,2013-03-10 02:19:00,
2013-03-09 18:24:00,48.2,37.8,30.46,SW,231,0.0,0.0,67,0.00,,---,0.00,0.00,VWS V14.01,2013-03-10 02:24:00,
2013-03-09 18:29:00,47.9,37.5,30.46,SW,231,0.0,0.0,67,0.00,,---,0.00,0.00,VWS V14.01,2013-03-10 02:29:00,
2013-03-09 18:30:00,45.4,36.2,30.47,SW,231,0.0,0.0,70,0.00,,---,0.00,0.00,VWS V14.01,2013-03-10 02:30:00,
2013-03-09 18:34:00,47.6,37.2,30.46,SW,231,0.0,1.0,67,0.00,,---,0.00,0.00,VWS V14.01,2013-03-10 02:34:00,
2013-03-09 18:39:00,47.3,36.9,30.46,SW,231,0.0,1.0,67,0.00,,---,0.00,0.00,VWS V14.01,2013-03-10 02:39:00,
2013-03-09 18:44:00,47.0,37.0,30.46,SW,231,1.0,2.0,68,0.00,,---,0.00,0.00,VWS V14.01,2013-03-10 02:44:00,
2013-03-09 18:49:00,46.8,36.8,30.45,SW,231,0.0,2.0,68,0.00,,---,0.00,0.00,VWS V14.01,2013-03-10 02:49:00,
2013-03-09 18:54:00,46.6,36.6,30.46,SW,231,0.0,2.0,68,0.00,,---,0.00,0.00,VWS V14.01,2013-03-10 02:54:00,
2013-03-09 18:59:00,46.4,36.8,30.46,SW,231,0.0,0.0,69,0.00,,---,0.00,0.00,VWS V14.01,2013-03-10 02:59:00,
2013-03-09 19:00:00,45.0,36.9,30.48,WSW,239,0.0,4.0,73,0.00,,---,0.00,0.00,VWS V14.01,2013-03-10 03:00:00,
2013-03-09 19:04:00,46.3,36.7,30.46,SW,231,0.0,0.0,69,0.00,,---,0.00,0.00,VWS V14.01,2013-03-10 03:04:00,
2013-03-09 19:09:00,46.1,36.5,30.46,SW,231,0.0,0.0,69,0.00,,---,0.00,0.00,VWS V14.01,2013-03-10 03:09:00,
2013-03-09 19:14:00,46.0,36.0,30.47,SW,231,0.0,0.0,68,0.00,,---,0.00,0.00,VWS V14.01,2013-03-10 03:14:00,
2013-03-09 19:19:00,45.7,36.1,30.47,SW,231,0.0,0.0,69,0.00,,---,0.00,0.00,VWS V14.01,2013-03-10 03:19:00,
2013-03-09 19:24:00,45.5,35.9,30.47,SW,231,0.0,0.0,69,0.00,,---,0.00,0.00,VWS V14.01,2013-03-10 03:24:00,
2013-03-09 19:29:00,45.3,36.1,30.47,SW,231,0.0,0.0,70,0.00,,---,0.00,0.00,VWS V14.01,2013-03-10 03:29:00,
2013-03-09 19:30:00,45.0,38.6,30.48,West,269,2.0,5.0,78,0.00,,---,0.00,0.00,VWS V14.01,2013-03-10 03:30:00,
2013-03-09 19:34:00,45.2,36.4,30.47,SW,231,0.0,0.0,71,0.00,,---,0.00,0.00,VWS V14.01,2013-03-10 03:34:00,
2013-03-09 19:39:00,45.2,36.4,30.47,SW,231,0.0,0.0,71,0.00,,---,0.00,0.00,VWS V14.01,2013-03-10 03:39:00,
2013-03-09 19:44:00,45.0,36.2,30.47,SW,231,0.0,1.0,71,0.00,,---,0.00,0.00,VWS V14.01,2013-03-10 03:44:00,
2013-03-09 19:49:00,45.0,36.2,30.48,SW,231,0.0,1.0,71,0.00,,---,0.00,0.00,VWS V14.01,2013-03-10 03:49:00,
2013-03-09 19:54:00,45.0,36.5,30.47,SW,231,1.0,3.0,72,0.00,,---,0.00,0.00,VWS V14.01,2013-03-10 03:54:00,
2013-03-09 19:59:00,45.0,36.9,30.48,WSW,239,1.0,4.0,73,0.00,,---,0.00,0.00,VWS V14.01,2013-03-10 03:59:00,
2013-03-09 20:00:00,44.0,37.9,30.48,West,279,0.0,5.0,79,0.00,,---,0.00,0.00,VWS V14.01,2013-03-10 04:00:00,
2013-03-09 20:04:00,45.1,38.0,30.48,WSW,256,1.0,5.0,76,0.00,,---,0.00,0.00,VWS V14.01,2013-03-10 04:04:00,
2013-03-09 20:09:00,45.3,38.9,30.48,WSW,256,0.0,5.0,78,0.00,,---,0.00,0.00,VWS V14.01,2013-03-10 04:09:00,
2013-03-09 20:14:00,45.3,38.9,30.48,West,260,0.0,5.0,78,0.00,,---,0.00,0.00,VWS V14.01,2013-03-10 04:14:00,
2013-03-09 20:19:00,45.2,38.4,30.48,West,260,0.0,5.0,77,0.00,,---,0.00,0.00,VWS V14.01,2013-03-10 04:19:00,
2013-03-09 20:24:00,45.0,38.6,30.48,West,269,0.0,5.0,78,0.00,,---,0.00,0.00,VWS V14.01,2013-03-10 04:24:00,
2013-03-09 20:29:00,45.0,38.6,30.48,West,269,0.0,2.0,78,0.00,,---,0.00,0.00,VWS V14.01,2013-03-10 04:29:00,
2013-03-09 20:30:00,42.7,36.7,30.49,NW,312,0.0,5.0,79,0.00,,---,0.00,0.00,VWS V14.01,2013-03-10 04:30:00,
2013-03-09 20:34:00,44.8,38.4,30.48,West,269,1.0,2.0,78,0.00,,---,0.00,0.00,VWS V14.01,2013-03-10 04:34:00,
2013-03-09 20:39:00,44.6,38.2,30.48,West,269,2.0,2.0,78,0.00,,---,0.00,0.00,VWS V14.01,2013-03-10 04:39:00,
2013-03-09 20:44:00,44.4,38.0,30.48,West,269,0.0,2.0,78,0.00,,---,0.00,0.00,VWS V14.01,2013-03-10 04:44:00,
2013-03-09 20:49:00,44.2,38.1,30.48,West,279,0.0,5.0,79,0.00,,---,0.00,0.00,VWS V14.01,2013-03-10 04:49:00,
2013-03-09 20:54:00,44.1,38.0,30.48,West,279,0.0,5.0,79,0.00,,---,0.00,0.00,VWS V14.01,2013-03-10 04:54:00,
2013-03-09 20:59:00,43.9,37.8,30.48,WNW,287,0.0,4.0,79,0.00,,---,0.00,0.00,VWS V14.01,2013-03-10 04:59:00,
2013-03-09 21:00:00,43.8,37.7,30.48,WNW,287,0.0,4.0,79,0.00,,---,0.00,0.00,VWS V14.01,2013-03-10 05:00:00,
2013-03-09 21:05:00,43.7,37.6,30.49,WNW,292,0.0,4.0,79,0.00,,---,0.00,0.00,VWS V14.01,2013-03-10 05:05:00,
2013-03-09 21:10:00,43.5,37.4,30.48,WNW,292,0.0,4.0,79,0.00,,---,0.00,0.00,VWS V14.01,2013-03-10 05:10:00,
2013-03-09 21:15:00,43.3,37.2,30.48,NW,312,0.0,5.0,79,0.00,,---,0.00,0.00,VWS V14.01,2013-03-10 05:15:00,
2013-03-09 21:20:00,43.1,37.0,30.49,NW,312,0.0,5.0,79,0.00,,---,0.00,0.00,VWS V14.01,2013-03-10 05:20:00,
2013-03-09 21:25:00,42.8,36.8,30.49,NW,312,0.0,5.0,79,0.00,,---,0.00,0.00,VWS V14.01,2013-03-10 05:25:00,
2013-03-09 21:30:00,42.6,36.5,30.49,NW,312,0.0,0.0,79,0.00,,---,0.00,0.00,VWS V14.01,2013-03-10 05:30:00,
2013-03-09 21:35:00,42.3,36.3,30.49,NW,312,0.0,1.0,79,0.00,,---,0.00,0.00,VWS V14.01,2013-03-10 05:35:00,
2013-03-09 21:40:00,42.1,36.1,30.49,NW,312,0.0,1.0,79,0.00,,---,0.00,0.00,VWS V14.01,2013-03-10 05:40:00,
2013-03-09 21:45:00,41.9,36.2,30.49,NW,312,0.0,1.0,80,0.00,,---,0.00,0.00,VWS V14.01,2013-03-10 05:45:00,
2013-03-09 21:50:00,41.7,36.0,30.49,NW,312,0.0,2.0,80,0.00,,---,0.00,0.00,VWS V14.01,2013-03-10 05:50:00,
2013-03-09 21:55:00,41.5,36.1,30.49,NW,312,0.0,2.0,81,0.00,,---,0.00,0.00,VWS V14.01,2013-03-10 05:55:00,
2013-03-09 22:00:00,41.4,36.0,30.49,NW,312,0.0,1.0,81,0.00,,---,0.00,0.00,VWS V14.01,2013-03-10 06:00:00,
2013-03-09 22:05:00,41.3,35.9,30.49,NW,312,0.0,1.0,81,0.00,,---,0.00,0.00,VWS V14.01,2013-03-10 06:05:00,
2013-03-09 22:10:00,41.1,35.7,30.49,NW,312,0.0,1.0,81,0.00,,---,0.00,0.00,VWS V14.01,2013-03-10 06:10:00,
2013-03-09 22:15:00,41.0,35.6,30.49,NW,312,0.0,1.0,81,0.00,,---,0.00,0.00,VWS V14.01,2013-03-10 06:15:00,
2013-03-09 22:20:00,40.9,35.8,30.49,NW,312,0.0,1.0,82,0.00,,---,0.00,0.00,VWS V14.01,2013-03-10 06:20:00,
2013-03-09 22:25:00,40.7,35.6,30.49,NW,312,0.0,1.0,82,0.00,,---,0.00,0.00,VWS V14.01,2013-03-10 06:25:00,
2013-03-09 22:30:00,40.6,35.5,30.49,NW,316,4.0,5.0,82,0.00,,---,0.00,0.00,VWS V14.01,2013-03-10 06:30:00,
2013-03-09 22:35:00,40.7,36.0,30.49,NW,316,0.0,5.0,83,0.00,,---,0.00,0.00,VWS V14.01,2013-03-10 06:35:00,
2013-03-09 22:40:00,40.7,35.6,30.49,NW,316,0.0,5.0,82,0.00,,---,0.00,0.00,VWS V14.01,2013-03-10 06:40:00,
2013-03-09 22:45:00,40.7,35.6,30.49,NW,316,0.0,5.0,82,0.00,,---,0.00,0.00,VWS V14.01,2013-03-10 06:45:00,
2013-03-09 22:50:00,40.7,35.6,30.49,NW,316,0.0,5.0,82,0.00,,---,0.00,0.00,VWS V14.01,2013-03-10 06:50:00,
2013-03-09 22:55:00,40.6,35.5,30.49,NW,316,0.0,5.0,82,0.00,,---,0.00,0.00,VWS V14.01,2013-03-10 06:55:00,
2013-03-09 23:00:00,40.5,35.5,30.49,NW,316,0.0,0.0,82,0.00,,---,0.00,0.00,VWS V14.01,2013-03-10 07:00:00,
2013-03-09 23:05:00,40.3,35.2,30.50,NW,316,0.0,0.0,82,0.00,,---,0.00,0.00,VWS V14.01,2013-03-10 07:05:00,
2013-03-09 23:10:00,40.2,35.2,30.50,NW,316,0.0,0.0,82,0.00,,---,0.00,0.00,VWS V14.01,2013-03-10 07:10:00,
2013-03-09 23:15:00,40.1,35.1,30.49,NW,316,0.0,0.0,82,0.00,,---,0.00,0.00,VWS V14.01,2013-03-10 07:15:00,
2013-03-09 23:20:00,39.9,34.9,30.49,NW,316,0.0,0.0,82,0.00,,---,0.00,0.00,VWS V14.01,2013-03-10 07:20:00,
2013-03-09 23:25:00,39.7,34.7,30.49,NW,316,0.0,0.0,82,0.00,,---,0.00,0.00,VWS V14.01,2013-03-10 07:25:00,
2013-03-09 23:30:00,39.6,34.9,30.49,NW,316,0.0,0.0,83,0.00,,---,0.00,0.00,VWS V14.01,2013-03-10 07:30:00,
2013-03-09 23:35:00,39.4,34.7,30.49,NW,316,0.0,0.0,83,0.00,,---,0.00,0.00,VWS V14.01,2013-03-10 07:35:00,
2013-03-09 23:40:00,39.3,34.6,30.49,NW,316,0.0,0.0,83,0.00,,---,0.00,0.00,VWS V14.01,2013-03-10 07:40:00,
2013-03-09 23:45:00,39.2,34.5,30.49,NW,316,0.0,0.0,83,0.00,,---,0.00,0.00,VWS V14.01,2013-03-10 07:45:00,
2013-03-09 23:50:00,39.1,34.7,30.49,NW,316,0.0,0.0,84,0.00,,---,0.00,0.00,VWS V14.01,2013-03-10 07:50:00,
2013-03-09 23:55:00,39.0,34.9,30.49,NW,316,0.0,0.0,85,0.00,,---,0.00,0.00,VWS V14.01,2013-03-10 07:55:00,